This is the latest recevied weather packets stored in our database for station/object N4TLC. If no packets are shown the sender has not sent any weather packets the latest 1 day(s).
| Time | Temp. | Humidity | Pressure | Rain* | Wind** | Luminosity | Snow |
|---|---|---|---|---|---|---|---|
| 1778103140 | 21.67° C | 72% | 1013.4 hPa | 0 mm | - | 142 W/m² | - |
| 1778102837 | 21.67° C | 71% | 1013.3 hPa | 0 mm | - | 160 W/m² | - |
| 1778102228 | 22.22° C | 70% | 1013.4 hPa | 0 mm | - | 223 W/m² | - |
| 1778099803 | 22.22° C | 70% | 1014 hPa | 0 mm | - | 474 W/m² | - |
| 1778099198 | 22.78° C | 69% | 1014 hPa | 0 mm | - | 543 W/m² | - |
| 1778095255 | 20° C | 75% | 1013.8 hPa | 0 mm | - | 411 W/m² | - |
| 1778094345 | 20.56° C | 74% | 1014.1 hPa | 0 mm | - | 275 W/m² | - |
| 1778094042 | 20.56° C | 74% | 1014.4 hPa | 0 mm | - | 290 W/m² | - |
| 1778092223 | 20° C | 77% | 1014 hPa | 0 mm | - | 354 W/m² | - |
| 1778091315 | 19.44° C | 77% | 1015.2 hPa | 0 mm | - | 233 W/m² | - |
| 1778090405 | 20° C | 78% | 1015.6 hPa | 0 mm | - | 223 W/m² | - |
| 1778090101 | 20° C | 75% | 1015.7 hPa | 0.51 mm | - | 195 W/m² | - |
| 1778088890 | 20.56° C | 72% | 1016.3 hPa | 0 mm | - | 188 W/m² | - |
| 1778087980 | 20.56° C | 71% | 1016.3 hPa | 0 mm | - | 176 W/m² | - |
| 1778087678 | 20.56° C | 71% | 1016.1 hPa | 0 mm | - | 85 W/m² | - |
| 1778086469 | 20.56° C | 71% | 1016.1 hPa | 0 mm | - | 175 W/m² | - |
| 1778084949 | 20° C | 70% | 1016.2 hPa | 0 mm | - | 171 W/m² | - |
| 1778083436 | 20° C | 69% | 1016.2 hPa | 0 mm | - | 250 W/m² | - |
| 1778080498 | 19.44° C | 70% | 1015.9 hPa | 0 mm | - | 134 W/m² | - |
| 1778080195 | 18.89° C | 70% | 1015.7 hPa | 0 mm | - | 156 W/m² | - |
| 1778079284 | 18.89° C | 70% | 1015.7 hPa | 0 mm | - | 231 W/m² | - |
| 1778078377 | 18.89° C | 70% | 1015.7 hPa | 0 mm | - | 130 W/m² | - |
| 1778077772 | 18.89° C | 69% | 1015.9 hPa | 0 mm | - | 163 W/m² | - |
| 1778076865 | 18.89° C | 69% | 1015.5 hPa | 0 mm | - | 163 W/m² | - |
| 1778075654 | 18.89° C | 69% | 1015.6 hPa | 0 mm | - | 167 W/m² | - |
* Rain latest hour (hover to see other rain measurements)
** Current wind speed in m/s (hover to see current wind gust speed)